Hlavní strana
METAR-TAF:

METAR-TAF

Letiště :

Muscatine, Iowa, Spojené státy americké

zeměpisná šířka: 41-22N, zeměpisná délka: 091-09W, výška: 167 m

Aktuální stav počasí

Zpráva byla vytvořena před 20 minutami, v 01:35 UTC
Severoseverovýchodní vítr 10 kt
Teplota 2°C
Vlhkost vzduchu 64%
Tlak 1021 hPa
Viditelnost: 16.1 km
Zataženo ve výšce 4200 ft

METAR: KMUT 260135Z AUTO 02010KT 10SM OVC042 02/M04 A3016 RMK AO2

Čas: 19:55 (01:55 UTC)


TAF: chybějící

Stav a předpovědi počasí z více než 4 000 letišť (zprávy METAR a TAF).

Červené a žluté tečky na mapě představují dostupné meteorologické stanice.

Když kurzor umístíte na tečku, zobrazí se název stanice.

Pak kliknutím zobrazíte stav a předpověď počasí.

Chcete-li změnit mapu, kliknutím na zelené tlačítko se znaménkem +mapu přiblížíte, kliknutím na zelené tlačítko se znaménkem – mapu oddálíte a kliknutím na zelené šipky přejdete na sousední mapy.


METAR-TAF: